createdAt,value
2022-11-17T00:01:55.913Z,444.70
2022-11-17T00:04:25.410Z,379.90
2022-11-17T00:06:52.563Z,411.50
2022-11-17T00:09:19.380Z,426.40
2022-11-17T00:12:06.489Z,349.40
2022-11-17T00:14:36.509Z,349.90
2022-11-17T00:17:07.172Z,280.42
2022-11-17T00:19:52.386Z,400.48
2022-11-17T00:22:19.331Z,360.00
2022-11-17T00:24:46.284Z,437.10
2022-11-17T00:27:13.231Z,338.20
2022-11-17T00:29:40.116Z,215.27
2022-11-17T00:32:33.027Z,246.93
2022-11-17T00:35:00.105Z,225.38
2022-11-17T00:37:28.976Z,251.80
2022-11-17T00:40:00.567Z,202.52
2022-11-17T00:42:27.589Z,273.95
2022-11-17T00:44:54.282Z,208.05
2022-11-17T00:47:20.995Z,277.73
2022-11-17T00:49:47.697Z,284.88
2022-11-17T00:52:14.488Z,308.38
2022-11-17T00:54:41.196Z,423.80
2022-11-17T00:57:07.904Z,428.98
2022-11-17T00:59:34.587Z,366.70
2022-11-17T01:02:01.362Z,458.95
2022-11-17T01:04:28.198Z,382.30
2022-11-17T01:06:54.940Z,191.02
2022-11-17T01:09:24.002Z,503.55
2022-11-17T01:11:52.281Z,474.17
2022-11-17T01:14:22.418Z,374.52
2022-11-17T01:16:49.255Z,274.25
2022-11-17T01:19:17.277Z,309.33
2022-11-17T01:21:44.293Z,267.27
2022-11-17T01:24:12.128Z,488.55
2022-11-17T01:26:40.081Z,213.25
2022-11-17T01:29:07.964Z,179.73
2022-11-17T01:31:38.203Z,192.88
2022-11-17T01:34:05.981Z,355.25
2022-11-17T01:36:54.138Z,234.73
2022-11-17T01:39:20.852Z,340.45
2022-11-17T01:41:47.686Z,539.00
2022-11-17T01:44:36.323Z,405.15
2022-11-17T01:47:14.818Z,452.98
2022-11-17T01:49:41.625Z,383.30
2022-11-17T01:52:11.013Z,509.35
2022-11-17T01:54:40.584Z,418.70
2022-11-17T01:57:13.451Z,422.00
2022-11-17T01:59:45.757Z,358.98
2022-11-17T02:02:12.484Z,460.05
2022-11-17T02:04:49.666Z,489.63
2022-11-17T02:07:27.132Z,406.13
2022-11-17T02:09:54.150Z,636.97
2022-11-17T02:12:23.513Z,402.27
2022-11-17T02:14:51.068Z,575.55
2022-11-17T02:17:19.548Z,610.67
2022-11-17T02:20:04.705Z,623.25
2022-11-17T02:22:31.388Z,449.92
2022-11-17T02:24:58.003Z,514.38
2022-11-17T02:27:55.790Z,384.27
2022-11-17T02:30:23.677Z,321.92
2022-11-17T02:33:02.584Z,540.53
2022-11-17T02:35:40.360Z,675.53
2022-11-17T02:40:55.715Z,479.80
2022-11-17T02:43:49.560Z,363.77
2022-11-17T02:46:24.755Z,469.45
2022-11-17T02:49:03.549Z,443.40
2022-11-17T02:51:34.338Z,401.67
2022-11-17T02:54:02.178Z,357.55
2022-11-17T02:56:28.856Z,355.05
2022-11-17T02:59:02.584Z,450.02
2022-11-17T03:01:52.111Z,430.75
2022-11-17T03:04:27.099Z,377.02
2022-11-17T03:07:21.219Z,418.85
2022-11-17T03:09:56.656Z,347.00
2022-11-17T03:12:41.588Z,224.23
2022-11-17T03:15:08.338Z,367.02
2022-11-17T03:18:20.284Z,365.58
2022-11-17T03:21:08.444Z,281.90
2022-11-17T03:23:50.112Z,305.52
2022-11-17T03:26:31.369Z,212.02
2022-11-17T03:29:01.665Z,274.55
2022-11-17T03:31:31.367Z,549.08
2022-11-17T03:34:00.795Z,347.95
2022-11-17T03:36:35.621Z,392.38
2022-11-17T03:39:12.784Z,244.93
2022-11-17T03:41:43.172Z,314.63
2022-11-17T03:44:11.820Z,365.15
2022-11-17T03:46:39.212Z,366.70
2022-11-17T03:49:29.221Z,167.95
2022-11-17T03:51:56.373Z,158.30
2022-11-17T03:57:05.991Z,249.48
2022-11-17T03:59:52.074Z,291.60
2022-11-17T04:02:21.088Z,174.70
2022-11-17T04:05:05.988Z,246.68
2022-11-17T04:07:34.990Z,184.80
2022-11-17T04:10:02.394Z,142.48
2022-11-17T04:12:47.877Z,227.95
2022-11-17T04:15:33.102Z,151.15
2022-11-17T04:18:00.214Z,284.83
2022-11-17T04:20:26.976Z,170.73
2022-11-17T04:23:08.722Z,187.10
2022-11-17T04:26:02.101Z,156.68
2022-11-17T04:28:39.670Z,142.52
2022-11-17T04:31:11.143Z,140.02
2022-11-17T04:33:40.215Z,152.88
2022-11-17T04:36:07.716Z,121.15
2022-11-17T04:38:34.828Z,143.73
2022-11-17T04:41:25.400Z,165.35
2022-11-17T04:43:52.699Z,124.57
2022-11-17T04:48:47.762Z,175.55
2022-11-17T04:51:16.252Z,127.00
2022-11-17T04:53:44.308Z,149.13
2022-11-17T04:56:11.293Z,112.53
2022-11-17T04:58:38.019Z,90.63
2022-11-17T05:01:13.890Z,79.07
2022-11-17T05:03:53.453Z,106.15
2022-11-17T05:06:32.285Z,110.53
2022-11-17T05:09:01.097Z,95.60
2022-11-17T05:11:48.135Z,115.93
2022-11-17T05:14:17.498Z,189.45
2022-11-17T05:17:08.672Z,127.72
2022-11-17T05:19:46.504Z,159.68
2022-11-17T05:22:39.192Z,150.55
2022-11-17T05:25:10.986Z,151.25
2022-11-17T05:27:38.541Z,150.82
2022-11-17T05:30:09.220Z,127.30
2022-11-17T05:32:35.916Z,156.80
2022-11-17T05:35:02.636Z,117.90
2022-11-17T05:37:29.511Z,130.07
2022-11-17T05:39:56.252Z,133.43
2022-11-17T05:42:22.971Z,146.25
2022-11-17T05:44:49.815Z,135.02
2022-11-17T05:47:16.974Z,110.07
2022-11-17T05:49:43.915Z,136.85
2022-11-17T05:52:10.612Z,115.05
2022-11-17T05:54:37.412Z,119.80
2022-11-17T05:57:18.343Z,101.00
2022-11-17T05:59:59.663Z,114.15
2022-11-17T06:02:34.989Z,117.20
2022-11-17T06:05:02.696Z,114.10
2022-11-17T06:07:29.669Z,128.15
2022-11-17T06:09:56.896Z,151.45
2022-11-17T06:12:23.828Z,135.18
2022-11-17T06:14:50.647Z,116.28
2022-11-17T06:17:25.425Z,109.82
2022-11-17T06:19:57.590Z,128.02
2022-11-17T06:22:27.040Z,142.82
2022-11-17T06:24:54.541Z,118.72
2022-11-17T06:27:21.971Z,118.15
2022-11-17T06:29:49.730Z,129.63
2022-11-17T06:32:18.927Z,125.20
2022-11-17T06:34:53.857Z,182.38
2022-11-17T06:37:23.811Z,111.17
2022-11-17T06:39:50.673Z,129.30
2022-11-17T06:42:17.441Z,114.13
2022-11-17T06:44:44.263Z,106.32
2022-11-17T06:47:13.803Z,100.43
2022-11-17T06:49:40.539Z,111.03
2022-11-17T06:52:07.244Z,105.22
2022-11-17T06:54:33.955Z,89.22
2022-11-17T06:57:00.852Z,95.63
2022-11-17T06:59:28.042Z,66.20
2022-11-17T07:04:21.616Z,79.78
2022-11-17T07:06:48.371Z,104.85
2022-11-17T07:09:15.178Z,93.55
2022-11-17T07:11:42.015Z,74.40
2022-11-17T07:14:08.833Z,86.88
2022-11-17T07:16:35.564Z,89.70
2022-11-17T07:19:03.836Z,57.03
2022-11-17T07:21:31.640Z,68.85
2022-11-17T07:23:58.433Z,64.90
2022-11-17T07:26:25.207Z,75.35
2022-11-17T07:28:52.257Z,57.25
2022-11-17T07:31:19.148Z,60.35
2022-11-17T07:33:45.919Z,52.03
2022-11-17T07:36:15.015Z,42.47
2022-11-17T07:38:42.254Z,41.67
2022-11-17T07:43:37.483Z,49.03
2022-11-17T07:48:39.243Z,34.55
2022-11-17T07:51:06.741Z,33.60
2022-11-17T07:53:35.301Z,42.75
2022-11-17T07:56:07.644Z,34.63
2022-11-17T07:58:35.669Z,37.80
2022-11-17T08:01:12.627Z,38.53
2022-11-17T08:03:40.033Z,43.58
2022-11-17T08:06:08.327Z,40.65
2022-11-17T08:08:37.098Z,35.03
2022-11-17T08:11:06.140Z,35.60
2022-11-17T08:13:33.566Z,36.47
2022-11-17T08:16:00.427Z,30.50
2022-11-17T08:18:28.163Z,34.20
2022-11-17T08:21:03.933Z,31.10
2022-11-17T08:23:31.431Z,22.17
2022-11-17T08:25:58.563Z,26.30
2022-11-17T08:30:51.999Z,29.25
2022-11-17T08:33:18.763Z,24.15
2022-11-17T08:35:45.601Z,27.55
2022-11-17T08:38:15.255Z,26.55
2022-11-17T08:40:43.279Z,20.35
2022-11-17T08:43:13.382Z,18.63
2022-11-17T08:45:45.466Z,23.40
2022-11-17T08:48:13.242Z,21.52
2022-11-17T08:50:40.120Z,27.17
2022-11-17T08:53:06.855Z,17.80
2022-11-17T08:55:40.979Z,18.42
2022-11-17T08:58:09.377Z,19.42
2022-11-17T09:00:36.389Z,22.88
2022-11-17T09:03:07.980Z,24.98
2022-11-17T09:05:39.588Z,24.17
2022-11-17T09:08:37.989Z,21.55
2022-11-17T09:10:54.023Z,24.48
2022-11-17T09:13:20.737Z,20.02
2022-11-17T09:15:47.521Z,22.17
2022-11-17T09:18:14.509Z,24.30
2022-11-17T09:20:45.435Z,20.17
2022-11-17T09:23:12.957Z,23.73
2022-11-17T09:25:40.049Z,18.90
2022-11-17T09:28:06.838Z,22.90
2022-11-17T09:30:33.777Z,22.02
2022-11-17T09:33:00.599Z,19.50
2022-11-17T09:35:27.409Z,22.90
2022-11-17T09:37:59.690Z,23.02
2022-11-17T09:40:26.594Z,21.83
2022-11-17T09:42:53.770Z,23.67
2022-11-17T09:48:12.491Z,18.38
2022-11-17T09:50:46.198Z,21.70
2022-11-17T09:53:22.842Z,17.98
2022-11-17T09:56:01.533Z,18.08
2022-11-17T09:58:38.324Z,24.40
2022-11-17T10:01:06.645Z,18.30
2022-11-17T10:03:43.642Z,18.38
2022-11-17T10:06:16.895Z,16.90
2022-11-17T10:09:00.615Z,17.85
2022-11-17T10:11:37.486Z,19.42
2022-11-17T10:14:13.871Z,18.73
2022-11-17T10:16:45.743Z,19.20
2022-11-17T10:19:25.046Z,19.42
2022-11-17T10:22:20.692Z,21.73
2022-11-17T10:24:55.633Z,17.13
2022-11-17T10:27:22.501Z,24.55
2022-11-17T10:30:01.321Z,22.23
2022-11-17T10:32:36.976Z,24.73
2022-11-17T10:35:27.492Z,20.15
2022-11-17T10:38:17.785Z,20.27
2022-11-17T10:40:49.398Z,19.77
2022-11-17T10:43:17.335Z,20.58
2022-11-17T10:45:46.074Z,21.23
2022-11-17T10:48:25.184Z,23.00
2022-11-17T10:51:23.043Z,17.90
2022-11-17T10:54:17.425Z,21.10
2022-11-17T10:56:53.719Z,16.63
2022-11-17T10:59:26.054Z,15.55
2022-11-17T11:01:53.223Z,15.77
2022-11-17T11:07:14.271Z,16.90
2022-11-17T11:10:06.594Z,14.63
2022-11-17T11:12:56.906Z,13.70
2022-11-17T11:15:25.013Z,17.08
2022-11-17T11:17:52.246Z,16.33
2022-11-17T11:20:24.588Z,14.30
2022-11-17T11:23:08.317Z,14.85
2022-11-17T11:25:40.856Z,13.38
2022-11-17T11:28:54.501Z,14.18
2022-11-17T11:31:44.702Z,12.30
2022-11-17T11:34:18.013Z,14.40
2022-11-17T11:37:10.632Z,11.43
2022-11-17T11:40:11.645Z,12.45
2022-11-17T11:42:57.866Z,12.05
2022-11-17T11:45:34.405Z,12.75
2022-11-17T11:48:19.044Z,12.23
2022-11-17T11:51:02.041Z,11.68
2022-11-17T11:53:43.954Z,11.35
2022-11-17T11:56:19.063Z,13.48
2022-11-17T11:58:54.052Z,12.55
2022-11-17T12:01:22.661Z,13.15
2022-11-17T12:04:03.058Z,13.23
2022-11-17T12:06:53.885Z,10.98
2022-11-17T12:09:41.117Z,10.48
2022-11-17T12:12:13.554Z,8.55
2022-11-17T12:14:41.329Z,9.75
2022-11-17T12:17:14.035Z,12.40
2022-11-17T12:19:54.446Z,10.88
2022-11-17T12:22:30.525Z,13.75
2022-11-17T12:25:16.384Z,14.50
2022-11-17T12:27:55.758Z,13.25
2022-11-17T12:30:40.025Z,12.10
2022-11-17T12:33:08.868Z,12.02
2022-11-17T12:35:39.929Z,12.90
2022-11-17T12:38:15.781Z,10.77
2022-11-17T12:40:54.174Z,13.60
2022-11-17T12:43:27.893Z,12.45
2022-11-17T12:46:17.300Z,12.77
2022-11-17T12:49:12.816Z,10.38
2022-11-17T12:51:54.664Z,11.13
2022-11-17T12:54:33.720Z,12.00
2022-11-17T12:57:07.022Z,12.93
2022-11-17T12:59:54.871Z,11.85
2022-11-17T13:02:40.770Z,12.07
2022-11-17T13:05:16.874Z,11.73
2022-11-17T13:07:43.689Z,11.82
2022-11-17T13:10:28.213Z,9.18
2022-11-17T13:13:16.437Z,13.73
2022-11-17T13:15:45.398Z,11.43
2022-11-17T13:18:36.615Z,11.57
2022-11-17T13:21:18.433Z,12.73
2022-11-17T13:23:46.418Z,10.80
2022-11-17T13:26:16.014Z,9.60
2022-11-17T13:28:43.785Z,9.50
2022-11-17T13:31:19.201Z,13.52
2022-11-17T13:34:16.748Z,18.85
2022-11-17T13:36:55.373Z,10.75
2022-11-17T13:39:27.020Z,10.20
2022-11-17T13:41:55.300Z,11.13
2022-11-17T13:44:27.918Z,9.40
2022-11-17T13:46:55.367Z,11.95
2022-11-17T13:49:31.140Z,27.52
2022-11-17T13:51:57.974Z,11.57
2022-11-17T13:54:25.046Z,11.60
2022-11-17T13:59:27.409Z,15.25
2022-11-17T14:02:30.022Z,42.95
2022-11-17T14:05:14.420Z,15.20
2022-11-17T14:07:43.407Z,11.07
2022-11-17T14:10:22.002Z,11.70
2022-11-17T14:13:02.173Z,12.32
2022-11-17T14:15:36.657Z,14.93
2022-11-17T14:18:18.889Z,19.30
2022-11-17T14:20:45.811Z,12.05
2022-11-17T14:23:15.879Z,11.25
2022-11-17T14:25:45.346Z,13.70
2022-11-17T14:28:18.210Z,13.68
2022-11-17T14:30:49.066Z,11.15
2022-11-17T14:33:17.511Z,11.82
2022-11-17T14:35:53.911Z,12.07
2022-11-17T14:38:21.532Z,14.15
2022-11-17T14:40:51.658Z,19.17
2022-11-17T14:43:26.010Z,28.85
2022-11-17T14:45:52.876Z,28.50
2022-11-17T14:48:20.395Z,96.43
2022-11-17T14:50:47.686Z,15.65
2022-11-17T14:53:14.919Z,13.90
2022-11-17T14:55:41.648Z,11.23
2022-11-17T14:58:09.911Z,14.45
2022-11-17T15:00:37.239Z,15.27
2022-11-17T15:05:35.293Z,14.25
2022-11-17T15:08:09.434Z,16.83
2022-11-17T15:10:47.976Z,17.50
2022-11-17T15:13:15.526Z,13.70
2022-11-17T15:15:42.478Z,13.52
2022-11-17T15:18:11.958Z,16.13
2022-11-17T15:20:38.657Z,19.90
2022-11-17T15:23:05.389Z,17.98
2022-11-17T15:25:32.185Z,19.45
2022-11-17T15:27:58.954Z,21.90
2022-11-17T15:30:26.149Z,22.08
2022-11-17T15:32:52.917Z,40.55
2022-11-17T15:35:19.609Z,15.55
2022-11-17T15:37:46.771Z,14.95
2022-11-17T15:40:19.044Z,28.67
2022-11-17T15:42:46.319Z,24.35
2022-11-17T15:45:13.159Z,30.15
2022-11-17T15:47:46.815Z,20.73
2022-11-17T15:50:18.845Z,17.83
2022-11-17T15:53:03.539Z,22.10
2022-11-17T15:55:33.694Z,20.55
2022-11-17T15:58:00.523Z,32.53
2022-11-17T16:00:27.438Z,42.42
2022-11-17T16:02:58.583Z,21.92
2022-11-17T16:05:25.762Z,21.08
2022-11-17T16:07:52.952Z,447.50
2022-11-17T16:10:19.932Z,34.75
2022-11-17T16:12:49.601Z,43.85
2022-11-17T16:15:16.899Z,428.20
2022-11-17T16:17:43.714Z,30.15
2022-11-17T16:20:11.225Z,20.20
2022-11-17T16:22:38.001Z,73.95
2022-11-17T16:25:05.601Z,365.20
2022-11-17T16:27:32.837Z,490.85
2022-11-17T16:29:59.710Z,23.42
2022-11-17T16:32:26.431Z,21.88
2022-11-17T16:34:53.122Z,20.25
2022-11-17T16:37:19.868Z,30.73
2022-11-17T16:39:46.590Z,28.25
2022-11-17T16:42:13.286Z,56.25
2022-11-17T16:44:40.110Z,23.95
2022-11-17T16:47:06.964Z,21.55
2022-11-17T16:49:35.791Z,26.52
2022-11-17T16:52:02.505Z,22.80
2022-11-17T16:54:29.425Z,17.95
2022-11-17T16:56:59.799Z,15.80
2022-11-17T16:59:30.549Z,15.85
2022-11-17T17:01:58.163Z,16.35
2022-11-17T17:04:24.953Z,21.25
2022-11-17T17:06:51.725Z,22.40
2022-11-17T17:09:23.204Z,27.95
2022-11-17T17:11:53.201Z,74.53
2022-11-17T17:14:20.077Z,106.85
2022-11-17T17:16:47.085Z,857.08
2022-11-17T17:19:16.052Z,176.15
2022-11-17T17:21:43.736Z,30.90
2022-11-17T17:24:13.200Z,24.17
2022-11-17T17:26:41.996Z,22.42
2022-11-17T17:29:10.922Z,22.15
2022-11-17T17:31:42.896Z,21.48
2022-11-17T17:34:13.129Z,23.30
2022-11-17T17:36:40.068Z,16.13
2022-11-17T17:39:07.106Z,16.45
2022-11-17T17:41:39.505Z,18.58
2022-11-17T17:44:08.002Z,25.33
2022-11-17T17:46:38.182Z,25.50
2022-11-17T17:49:05.636Z,23.13
2022-11-17T17:51:35.509Z,21.77
2022-11-17T17:54:02.319Z,23.00
2022-11-17T17:56:30.740Z,23.15
2022-11-17T17:58:58.028Z,23.63
2022-11-17T18:01:27.520Z,22.75
2022-11-17T18:04:04.707Z,32.10
2022-11-17T18:06:41.265Z,24.58
2022-11-17T18:09:17.492Z,29.80
2022-11-17T18:11:51.638Z,26.23
2022-11-17T18:14:24.953Z,24.90
2022-11-17T18:16:55.584Z,23.48
2022-11-17T18:19:33.189Z,24.83
2022-11-17T18:22:01.026Z,31.10
2022-11-17T18:24:28.354Z,26.00
2022-11-17T18:26:55.083Z,30.42
2022-11-17T18:29:21.799Z,33.63
2022-11-17T18:31:49.818Z,27.35
2022-11-17T18:34:20.654Z,27.50
2022-11-17T18:36:52.409Z,27.50
2022-11-17T18:39:19.675Z,26.08
2022-11-17T18:41:47.140Z,27.30
2022-11-17T18:44:15.490Z,30.38
2022-11-17T18:46:42.551Z,62.67
2022-11-17T18:49:09.360Z,126.57
2022-11-17T18:51:36.122Z,80.63
2022-11-17T18:54:06.728Z,99.10
2022-11-17T18:56:36.929Z,51.35
2022-11-17T18:59:11.587Z,50.35
2022-11-17T19:01:40.611Z,36.55
2022-11-17T19:04:07.769Z,24.75
2022-11-17T19:06:34.944Z,26.30
2022-11-17T19:11:30.822Z,26.60
2022-11-17T19:13:59.149Z,28.95
2022-11-17T19:16:26.671Z,28.55
2022-11-17T19:18:56.349Z,27.80
2022-11-17T19:21:25.933Z,28.73
2022-11-17T19:23:54.831Z,28.30
2022-11-17T19:26:24.479Z,25.70
2022-11-17T19:28:58.557Z,27.30
2022-11-17T19:31:26.579Z,26.95
2022-11-17T19:33:53.893Z,34.55
2022-11-17T19:36:26.541Z,82.13
2022-11-17T19:38:55.869Z,56.25
2022-11-17T19:41:25.446Z,31.52
2022-11-17T19:43:54.220Z,44.00
2022-11-17T19:46:21.677Z,28.58
2022-11-17T19:48:48.565Z,31.48
2022-11-17T19:51:19.991Z,28.48
2022-11-17T19:53:50.896Z,28.67
2022-11-17T19:56:17.999Z,29.05
2022-11-17T20:01:17.088Z,37.75
2022-11-17T20:03:43.946Z,37.70
2022-11-17T20:06:13.338Z,31.27
2022-11-17T20:08:40.452Z,29.65
2022-11-17T20:11:08.698Z,29.95
2022-11-17T20:13:36.296Z,29.70
2022-11-17T20:16:08.777Z,30.17
2022-11-17T20:18:38.369Z,28.40
2022-11-17T20:21:06.849Z,32.80
2022-11-17T20:23:38.182Z,31.17
2022-11-17T20:26:06.848Z,26.35
2022-11-17T20:28:35.220Z,33.63
2022-11-17T20:31:24.759Z,36.38
2022-11-17T20:33:53.710Z,32.85
2022-11-17T20:36:23.566Z,47.50
2022-11-17T20:38:55.152Z,80.28
2022-11-17T20:41:23.420Z,32.67
2022-11-17T20:43:52.505Z,70.75
2022-11-17T20:46:20.485Z,52.78
2022-11-17T20:48:47.886Z,40.08
2022-11-17T20:51:26.356Z,51.92
2022-11-17T20:53:55.201Z,46.05
2022-11-17T20:56:22.833Z,39.25
2022-11-17T20:58:49.655Z,32.72
2022-11-17T21:01:19.620Z,28.58
2022-11-17T21:03:48.305Z,28.30
2022-11-17T21:06:18.389Z,26.40
2022-11-17T21:08:46.438Z,24.05
2022-11-17T21:11:37.363Z,24.83
2022-11-17T21:14:10.212Z,24.10
2022-11-17T21:16:40.022Z,25.73
2022-11-17T21:19:07.900Z,29.70
2022-11-17T21:21:35.665Z,28.85
2022-11-17T21:24:04.553Z,40.83
2022-11-17T21:26:32.344Z,30.77
2022-11-17T21:29:05.908Z,35.00
2022-11-17T21:31:33.911Z,25.48
2022-11-17T21:34:04.534Z,30.23
2022-11-17T21:36:33.040Z,27.50
2022-11-17T21:39:01.628Z,30.52
2022-11-17T21:41:34.436Z,28.27
2022-11-17T21:44:03.952Z,29.88
2022-11-17T21:46:33.835Z,29.75
2022-11-17T21:49:01.434Z,34.08
2022-11-17T21:51:33.530Z,34.38
2022-11-17T21:54:04.764Z,38.03
2022-11-17T21:56:32.224Z,26.80
2022-11-17T21:59:01.622Z,27.05
2022-11-17T22:01:29.499Z,25.73
2022-11-17T22:03:56.806Z,28.58
2022-11-17T22:08:51.854Z,30.10
2022-11-17T22:11:35.286Z,28.35
2022-11-17T22:14:09.755Z,28.58
2022-11-17T22:16:38.786Z,29.30
2022-11-17T22:19:06.544Z,25.98
2022-11-17T22:21:33.805Z,29.58
2022-11-17T22:24:00.598Z,29.73
2022-11-17T22:26:27.561Z,30.58
2022-11-17T22:28:55.880Z,28.40
2022-11-17T22:31:23.013Z,27.80
2022-11-17T22:36:17.617Z,26.48
2022-11-17T22:38:44.966Z,25.00
2022-11-17T22:41:12.635Z,25.38
2022-11-17T22:43:39.366Z,22.55
2022-11-17T22:46:11.270Z,27.02
2022-11-17T22:48:38.327Z,23.35
2022-11-17T22:51:05.851Z,23.85
2022-11-17T22:53:33.944Z,24.27
2022-11-17T22:56:03.104Z,28.85
2022-11-17T22:58:30.490Z,29.70
2022-11-17T23:00:57.251Z,29.88
2022-11-17T23:03:24.310Z,27.40
2022-11-17T23:05:51.065Z,33.80
2022-11-17T23:08:17.813Z,25.38
2022-11-17T23:10:44.602Z,28.58
2022-11-17T23:13:11.335Z,28.13
2022-11-17T23:15:39.230Z,23.33
2022-11-17T23:18:05.966Z,48.60
2022-11-17T23:20:33.171Z,28.25
2022-11-17T23:25:26.434Z,28.10
2022-11-17T23:27:53.168Z,33.10
2022-11-17T23:30:20.000Z,27.83
2022-11-17T23:32:46.731Z,27.75
2022-11-17T23:35:13.517Z,28.85
2022-11-17T23:37:40.301Z,32.25
2022-11-17T23:40:07.571Z,26.77
2022-11-17T23:45:09.247Z,32.05
2022-11-17T23:47:36.024Z,25.40
2022-11-17T23:50:02.873Z,24.50
2022-11-17T23:52:29.558Z,27.40
2022-11-17T23:54:56.413Z,25.73
2022-11-17T23:57:23.290Z,24.83
2022-11-17T23:59:50.106Z,26.65
